Time;durP1;ratioP1;P1;durP2;ratioP2;P2;SDS_P1;SDS_P2;PMS_P1;PMS_P2;Temp;Humidity;BMP_temperature;BMP_pressure;BME280_temperature;BME280_humidity;BME280_pressure;Samples;Min_cycle;Max_cycle;Signal;HPM_P1;HPM_P2
2022/03/08 00:02:19;;;;;;;29.30;18.92;;;;;;;1.14;39.67;95797.09;4968561;28;20026;-71
2022/03/08 00:04:45;;;;;;;24.98;18.20;;;;;;;-0.08;39.26;95598.75;4952738;28;20027;-70
2022/03/08 00:07:12;;;;;;;26.00;18.48;;;;;;;1.60;39.29;95849.72;4952654;29;20027;-70
2022/03/08 00:09:38;;;;;;;27.38;19.35;;;;;;;0.62;39.67;95749.00;4966102;28;20369;-70
2022/03/08 00:12:04;;;;;;;29.67;20.08;;;;;;;0.55;39.04;95699.38;4971628;28;20031;-71
2022/03/08 00:14:30;;;;;;;28.75;19.25;;;;;;;0.48;39.16;95691.63;4970692;28;20058;-70
2022/03/08 00:16:56;;;;;;;26.33;19.17;;;;;;;1.56;39.19;95865.09;4970607;28;20027;-70
2022/03/08 00:19:21;;;;;;;30.35;18.83;;;;;;;0.40;38.78;95685.91;4971621;28;20031;-72
2022/03/08 00:21:47;;;;;;;27.05;18.20;;;;;;;0.71;38.78;95737.16;4970521;28;20480;-71
2022/03/08 00:24:12;;;;;;;27.88;19.20;;;;;;;1.34;38.93;95809.84;4970087;28;20034;-70
2022/03/08 00:26:39;;;;;;;28.15;18.75;;;;;;;0.55;38.67;95699.38;4971636;28;20031;-70
2022/03/08 00:29:04;;;;;;;26.80;18.58;;;;;;;1.59;38.81;95848.94;4970129;28;20031;-71
2022/03/08 00:31:30;;;;;;;26.17;18.40;;;;;;;1.33;38.58;95802.97;4971252;28;20089;-71
2022/03/08 00:33:56;;;;;;;25.63;17.55;;;;;;;0.37;38.66;95663.63;4970466;28;20446;-70
2022/03/08 00:36:22;;;;;;;28.27;18.45;;;;;;;1.61;38.59;95833.75;4972290;28;20030;-70
2022/03/08 00:38:48;;;;;;;24.38;17.10;;;;;;;0.75;38.50;95714.75;4971874;28;20463;-70
2022/03/08 00:41:13;;;;;;;24.13;17.95;;;;;;;0.47;38.30;95671.72;4970651;28;20031;-70
2022/03/08 00:43:38;;;;;;;26.95;18.65;;;;;;;1.43;38.64;95805.03;4970855;28;20033;-70
2022/03/08 00:46:04;;;;;;;27.00;17.20;;;;;;;0.60;39.77;95800.78;4971955;28;20456;-70
2022/03/08 00:48:29;;;;;;;24.27;17.73;;;;;;;1.15;39.17;95800.50;4971339;28;20384;-71
2022/03/08 00:50:55;;;;;;;27.35;17.52;;;;;;;1.42;39.13;95837.53;4970583;28;20029;-72
2022/03/08 00:53:21;;;;;;;23.33;17.95;;;;;;;0.96;38.99;95760.50;4971297;28;20023;-71
2022/03/08 00:55:46;;;;;;;22.88;16.45;;;;;;;-0.29;38.79;95555.66;4971203;28;20027;-71
2022/03/08 00:58:12;;;;;;;25.70;16.83;;;;;;;-0.35;38.48;95555.75;4970697;28;20031;-71
2022/03/08 01:00:39;;;;;;;26.15;16.50;;;;;;;-0.12;38.54;95604.66;4971322;28;20539;-71
2022/03/08 01:03:04;;;;;;;22.10;17.17;;;;;;;-0.45;38.48;95529.38;4970474;28;20391;-71
2022/03/08 01:05:31;;;;;;;24.95;17.92;;;;;;;1.40;38.58;95842.22;4974922;28;20042;-71
2022/03/08 01:07:57;;;;;;;24.75;17.30;;;;;;;-0.15;38.55;95586.81;4973459;28;20049;-71
2022/03/08 01:10:25;;;;;;;27.77;18.10;;;;;;;0.53;38.97;95714.50;4973250;28;20026;-71
2022/03/08 01:12:51;;;;;;;25.08;17.75;;;;;;;-0.08;38.70;95587.50;4973587;28;20022;-71
2022/03/08 01:15:18;;;;;;;23.08;17.30;;;;;;;0.67;38.50;95702.00;4973493;28;20030;-71
2022/03/08 01:17:47;;;;;;;24.80;18.05;;;;;;;0.79;39.27;95765.63;4974950;28;20034;-72
2022/03/08 01:20:13;;;;;;;25.35;17.48;;;;;;;0.64;38.72;95737.28;4973394;28;20372;-71
2022/03/08 01:22:39;;;;;;;28.13;18.40;;;;;;;0.55;39.35;95740.44;4975895;28;20023;-71
2022/03/08 01:25:06;;;;;;;25.15;17.33;;;;;;;0.52;38.85;95713.72;4975468;28;20031;-70
2022/03/08 01:27:31;;;;;;;26.42;18.13;;;;;;;0.18;38.98;95664.75;4974021;28;20117;-72
2022/03/08 01:29:57;;;;;;;25.08;17.63;;;;;;;-0.14;39.04;95604.09;4973870;28;20049;-72
2022/03/08 01:32:22;;;;;;;23.35;17.33;;;;;;;-0.56;38.77;95533.56;4975888;28;20038;-72
2022/03/08 01:34:48;;;;;;;27.30;17.15;;;;;;;0.52;39.12;95707.69;4975626;28;20110;-71
2022/03/08 01:37:14;;;;;;;21.17;16.83;;;;;;;0.19;38.66;95648.03;4974838;28;20027;-72
2022/03/08 01:39:39;;;;;;;24.58;17.60;;;;;;;-0.08;38.68;95619.66;4972487;28;20030;-71
2022/03/08 01:42:16;;;;;;;25.30;18.15;;;;;;;0.47;38.76;95710.97;4973010;28;20022;-71
2022/03/08 01:44:46;;;;;;;24.75;17.50;;;;;;;0.51;38.52;95701.66;4974101;28;20034;-71
2022/03/08 01:47:14;;;;;;;24.42;16.65;;;;;;;1.18;38.73;95794.81;4974170;28;20550;-71
2022/03/08 01:49:40;;;;;;;25.00;18.27;;;;;;;-1.03;38.87;95443.84;4972206;28;20023;-71
2022/03/08 01:52:07;;;;;;;27.45;18.50;;;;;;;-0.26;39.08;95575.28;4972380;28;20039;-70
2022/03/08 01:54:32;;;;;;;30.35;18.77;;;;;;;0.60;38.92;95748.44;4971867;28;20034;-72
2022/03/08 01:56:58;;;;;;;24.80;18.50;;;;;;;1.11;39.02;95825.56;4973109;28;20041;-70
2022/03/08 01:59:23;;;;;;;30.42;18.98;;;;;;;0.30;39.38;95693.53;4973782;28;20089;-70
2022/03/08 02:01:49;;;;;;;26.80;18.48;;;;;;;0.40;39.58;95689.34;4972631;28;20034;-72
2022/03/08 02:04:14;;;;;;;25.08;19.45;;;;;;;0.41;39.56;95701.41;4973749;28;20038;-72
2022/03/08 02:06:47;;;;;;;28.60;18.77;;;;;;;0.52;39.84;95713.72;4972590;28;20030;-71
2022/03/08 02:09:13;;;;;;;26.50;18.30;;;;;;;-0.32;39.62;95576.19;4971614;28;20672;-71
2022/03/08 02:11:39;;;;;;;28.17;18.67;;;;;;;0.20;40.00;95647.78;4968746;28;20110;-70
2022/03/08 02:14:05;;;;;;;27.02;18.33;;;;;;;0.08;39.77;95659.28;4973225;28;20476;-71
2022/03/08 02:16:31;;;;;;;24.27;18.70;;;;;;;0.18;39.69;95667.38;4971820;28;20031;-71
2022/03/08 02:18:56;;;;;;;26.92;18.88;;;;;;;0.29;39.92;95695.34;4971747;28;20019;-72
2022/03/08 02:21:22;;;;;;;26.98;18.38;;;;;;;0.93;39.85;95784.56;4971990;28;20030;-71
2022/03/08 02:23:47;;;;;;;23.50;18.02;;;;;;;0.86;39.68;95765.53;4971721;28;20027;-71
2022/03/08 02:26:12;;;;;;;28.83;18.25;;;;;;;-0.50;40.13;95563.22;4971569;28;20030;-71
2022/03/08 02:28:38;;;;;;;25.65;18.58;;;;;;;0.32;39.53;95675.81;4971567;28;20058;-70
2022/03/08 02:31:04;;;;;;;24.40;18.35;;;;;;;0.02;40.20;95649.72;4971686;28;20479;-71
2022/03/08 02:33:29;;;;;;;28.10;18.77;;;;;;;0.12;39.98;95632.44;4973144;28;20031;-71
2022/03/08 02:35:55;;;;;;;30.52;18.77;;;;;;;0.01;40.01;95648.13;4971634;28;20027;-71
2022/03/08 02:38:20;;;;;;;27.30;18.60;;;;;;;1.08;39.85;95755.28;4971693;28;20038;-71
2022/03/08 02:40:46;;;;;;;28.30;18.17;;;;;;;0.78;39.54;95738.66;4970859;28;20037;-71
2022/03/08 02:43:12;;;;;;;29.08;20.02;;;;;;;0.08;39.26;95626.06;4972829;28;20062;-71
2022/03/08 02:45:38;;;;;;;26.60;18.90;;;;;;;0.02;39.67;95619.13;4972781;28;20042;-71
2022/03/08 02:48:04;;;;;;;29.27;18.77;;;;;;;-0.02;39.70;95597.06;4969737;28;20030;-71
2022/03/08 02:50:30;;;;;;;30.50;20.27;;;;;;;-0.63;39.75;95531.03;4971288;28;20026;-71
2022/03/08 02:52:57;;;;;;;27.77;19.27;;;;;;;0.36;39.85;95688.22;4970395;28;20392;-71
2022/03/08 02:55:25;;;;;;;30.50;20.13;;;;;;;0.56;39.67;95716.66;4971228;28;20031;-72
2022/03/08 02:57:53;;;;;;;26.92;18.90;;;;;;;-0.05;39.72;95595.69;4969780;28;20431;-71
2022/03/08 03:00:19;;;;;;;32.03;19.83;;;;;;;0.38;39.74;95638.25;4969813;28;20132;-71
2022/03/08 03:02:46;;;;;;;27.27;18.52;;;;;;;-0.33;39.87;95535.41;4972154;28;20039;-72
2022/03/08 03:05:12;;;;;;;28.10;19.38;;;;;;;-0.33;39.96;95538.03;4971136;28;20027;-71
2022/03/08 03:07:39;;;;;;;27.52;19.63;;;;;;;-0.46;40.02;95515.53;4971103;28;20149;-71
2022/03/08 03:10:10;;;;;;;31.98;20.90;;;;;;;0.69;40.30;95729.53;4971736;28;20026;-71
2022/03/08 03:12:35;;;;;;;31.10;19.27;;;;;;;0.16;40.01;95641.44;4964854;28;20035;-70
2022/03/08 03:15:02;;;;;;;31.02;19.55;;;;;;;-0.28;39.98;95559.06;4970283;28;20027;-71
2022/03/08 03:17:27;;;;;;;28.63;20.02;;;;;;;0.42;40.19;95663.75;4972396;28;20038;-71
2022/03/08 03:19:53;;;;;;;28.80;19.85;;;;;;;-0.13;40.23;95603.84;4970964;28;20049;-72
2022/03/08 03:22:18;;;;;;;32.10;20.63;;;;;;;0.66;40.19;95685.47;4971067;28;20749;-70
2022/03/08 03:24:44;;;;;;;33.33;21.38;;;;;;;0.82;40.16;95707.59;4971917;28;20034;-70
2022/03/08 03:27:09;;;;;;;30.92;19.60;;;;;;;0.39;39.61;95632.78;4970212;28;20019;-71
2022/03/08 03:29:35;;;;;;;33.00;21.13;;;;;;;-0.10;40.11;95553.75;4972086;28;20041;-72
2022/03/08 03:32:00;;;;;;;32.03;21.33;;;;;;;-0.02;40.32;95578.75;4970918;28;20026;-71
2022/03/08 03:34:26;;;;;;;33.25;21.67;;;;;;;-0.62;40.29;95482.19;4970958;28;20117;-71
2022/03/08 03:36:51;;;;;;;33.20;20.33;;;;;;;0.03;40.73;95591.94;4970976;28;20057;-71
2022/03/08 03:39:16;;;;;;;32.53;20.00;;;;;;;-1.21;40.65;95423.81;4971293;28;20487;-71
2022/03/08 03:41:42;;;;;;;35.97;21.83;;;;;;;-0.16;40.44;95591.22;4970377;28;20023;-70
2022/03/08 03:44:07;;;;;;;31.02;21.25;;;;;;;0.11;40.83;95645.75;4972149;28;20034;-70
2022/03/08 03:46:33;;;;;;;35.95;22.50;;;;;;;-0.04;40.69;95615.59;4970907;28;20498;-72
2022/03/08 03:48:58;;;;;;;31.08;21.30;;;;;;;0.19;40.78;95634.94;4970473;28;20045;-72
2022/03/08 03:51:24;;;;;;;35.47;20.38;;;;;;;0.23;40.93;95668.28;4970810;28;20034;-71
2022/03/08 03:53:49;;;;;;;32.22;21.52;;;;;;;0.22;41.00;95660.66;4970261;28;20125;-71
2022/03/08 03:56:15;;;;;;;37.28;21.83;;;;;;;0.03;40.66;95635.59;4971726;28;20109;-71
2022/03/08 03:58:40;;;;;;;34.53;22.02;;;;;;;0.03;41.84;95691.31;4970229;28;20066;-70
2022/03/08 04:01:06;;;;;;;29.48;20.65;;;;;;;0.77;41.23;95742.31;4971794;28;20034;-71
2022/03/08 04:03:32;;;;;;;33.83;21.98;;;;;;;-0.18;40.86;95602.94;4970742;28;20050;-71
2022/03/08 04:05:57;;;;;;;33.85;21.70;;;;;;;0.91;40.55;95755.16;4970734;28;20674;-71
2022/03/08 04:08:23;;;;;;;34.95;21.92;;;;;;;-0.51;40.98;95531.06;4970385;28;20039;-72
2022/03/08 04:10:49;;;;;;;36.85;22.70;;;;;;;0.27;41.30;95663.41;4971378;28;20037;-70
2022/03/08 04:13:15;;;;;;;33.72;21.38;;;;;;;0.32;41.02;95655.66;4970517;28;20031;-71
2022/03/08 04:15:42;;;;;;;34.25;23.00;;;;;;;0.87;40.80;95767.94;4970457;28;20089;-71
2022/03/08 04:18:08;;;;;;;36.58;21.85;;;;;;;0.83;41.10;95750.28;4970470;28;20495;-71
2022/03/08 04:20:34;;;;;;;37.67;22.70;;;;;;;-0.91;41.01;95489.06;4970618;28;20023;-71
2022/03/08 04:22:59;;;;;;;31.77;21.67;;;;;;;-0.16;41.47;95646.13;4970530;28;20038;-71
2022/03/08 04:25:25;;;;;;;40.45;22.88;;;;;;;-0.10;41.44;95665.38;4971267;28;20106;-71
2022/03/08 04:27:51;;;;;;;35.88;23.50;;;;;;;-0.01;40.87;95633.44;4971647;28;20514;-71
2022/03/08 04:30:17;;;;;;;34.95;22.35;;;;;;;0.03;41.07;95648.69;4970127;28;20031;-70
2022/03/08 04:32:43;;;;;;;39.08;22.65;;;;;;;0.36;41.39;95730.09;4971746;28;20034;-70
2022/03/08 04:35:08;;;;;;;35.80;22.50;;;;;;;-0.25;41.22;95629.19;4970340;28;20031;-71
2022/03/08 04:37:34;;;;;;;36.25;23.02;;;;;;;-0.27;41.54;95620.75;4970313;28;20035;-70
2022/03/08 04:40:00;;;;;;;38.45;22.35;;;;;;;0.07;41.54;95658.47;4974293;28;20027;-71
2022/03/08 04:42:26;;;;;;;38.78;22.67;;;;;;;-0.70;41.61;95537.38;4973952;28;20173;-71
2022/03/08 04:44:51;;;;;;;40.15;22.63;;;;;;;-0.21;41.77;95634.75;4975418;28;20034;-71
2022/03/08 04:47:26;;;;;;;33.30;21.63;;;;;;;0.15;41.84;95670.41;4973840;28;20026;-70
2022/03/08 04:49:55;;;;;;;37.50;21.85;;;;;;;0.75;41.74;95744.34;4973821;28;20038;-71
2022/03/08 04:52:21;;;;;;;32.60;21.40;;;;;;;-0.30;41.60;95590.66;4974988;28;20031;-71
2022/03/08 04:54:46;;;;;;;33.53;21.23;;;;;;;0.01;41.41;95641.06;4973306;28;20061;-72
2022/03/08 04:57:12;;;;;;;36.00;21.65;;;;;;;-0.86;41.59;95494.41;4973448;28;20491;-72
2022/03/08 04:59:38;;;;;;;34.95;21.85;;;;;;;-0.43;41.53;95549.03;4975047;28;20502;-71
2022/03/08 05:02:03;;;;;;;29.27;19.83;;;;;;;0.86;41.33;95760.28;4973592;28;20193;-69
2022/03/08 05:04:29;;;;;;;32.58;20.73;;;;;;;0.18;41.48;95649.84;4975123;28;20035;-68
2022/03/08 05:06:54;;;;;;;31.77;20.58;;;;;;;0.55;41.46;95711.66;4973527;28;20030;-69
2022/03/08 05:09:20;;;;;;;31.52;20.70;;;;;;;0.86;41.65;95776.78;4974064;28;20644;-69
2022/03/08 05:11:45;;;;;;;32.38;20.70;;;;;;;0.71;41.34;95724.06;4974554;28;20027;-69
2022/03/08 05:14:11;;;;;;;38.53;21.45;;;;;;;-0.15;41.22;95569.31;4974645;28;20086;-70
2022/03/08 05:16:37;;;;;;;32.25;21.45;;;;;;;-0.09;41.32;95586.72;4974693;28;20035;-73
2022/03/08 05:19:02;;;;;;;31.70;20.60;;;;;;;1.00;41.46;95751.19;4973092;28;20031;-71
2022/03/08 05:23:56;;;;;;;31.10;19.98;;;;;;;0.65;41.23;95670.78;4992691;28;20050;-71
2022/03/08 05:26:21;;;;;;;32.88;20.58;;;;;;;0.67;41.29;95681.84;4986027;28;20049;-73
2022/03/08 05:28:47;;;;;;;29.23;18.73;;;;;;;0.03;41.46;95586.72;4975914;28;20388;-69
2022/03/08 05:31:13;;;;;;;31.30;19.17;;;;;;;0.58;41.61;95653.63;4956511;28;20037;-70
2022/03/08 05:33:39;;;;;;;27.52;19.65;;;;;;;0.71;41.37;95684.78;4957109;28;20035;-71
2022/03/08 05:36:05;;;;;;;30.23;18.92;;;;;;;1.13;41.19;95737.06;4956938;28;20464;-70
2022/03/08 05:38:31;;;;;;;28.42;20.27;;;;;;;1.13;41.36;95739.69;4974125;28;20054;-71
2022/03/08 05:40:57;;;;;;;28.67;19.75;;;;;;;1.04;41.40;95721.69;4956076;28;20023;-70
2022/03/08 05:43:22;;;;;;;28.70;19.00;;;;;;;0.97;41.29;95701.84;4974057;28;20041;-70
2022/03/08 05:45:47;;;;;;;29.05;18.77;;;;;;;1.02;41.59;95722.91;4974194;28;20035;-69
2022/03/08 05:48:13;;;;;;;28.75;19.17;;;;;;;0.74;41.56;95686.97;4974126;28;20037;-70
2022/03/08 05:50:38;;;;;;;29.17;18.42;;;;;;;1.20;41.39;95742.97;4955974;28;20427;-71
2022/03/08 05:53:04;;;;;;;29.92;19.73;;;;;;;1.01;41.87;95710.84;4956865;28;20030;-72
2022/03/08 05:55:29;;;;;;;27.92;19.33;;;;;;;0.81;41.49;95679.78;4956085;28;20476;-68
2022/03/08 05:57:55;;;;;;;29.05;19.45;;;;;;;0.91;41.47;95690.47;4973619;28;20035;-69
2022/03/08 06:00:20;;;;;;;30.02;19.27;;;;;;;0.63;40.96;95630.19;4973805;28;20026;-75
2022/03/08 06:02:46;;;;;;;30.02;19.05;;;;;;;1.09;41.30;95692.19;4956643;28;20573;-70
2022/03/08 06:05:12;;;;;;;29.42;18.85;;;;;;;1.39;41.26;95726.06;4973730;28;20057;-71
2022/03/08 06:07:37;;;;;;;28.40;18.45;;;;;;;1.33;41.13;95724.34;4973860;28;20117;-77
2022/03/08 06:10:06;;;;;;;26.55;19.52;;;;;;;1.34;40.81;95694.53;4955897;28;20118;-71
2022/03/08 06:12:31;;;;;;;26.63;18.27;;;;;;;1.55;40.84;95706.19;4973603;28;20034;-75
2022/03/08 06:14:57;;;;;;;28.80;19.42;;;;;;;1.86;40.99;95744.28;4956957;28;20111;-76
2022/03/08 06:17:22;;;;;;;28.27;19.50;;;;;;;1.40;40.50;95670.00;4956362;28;20533;-76
2022/03/08 06:19:47;;;;;;;36.15;20.00;;;;;;;1.42;40.72;95678.41;4956026;28;20035;-79
2022/03/08 06:22:13;;;;;;;27.38;18.35;;;;;;;1.74;40.42;95706.81;4973260;28;20035;-76
2022/03/08 06:24:38;;;;;;;30.35;19.15;;;;;;;1.73;40.58;95710.47;4955835;28;20494;-73
2022/03/08 06:27:04;;;;;;;25.92;18.17;;;;;;;1.81;40.73;95731.09;4949741;28;20034;-74
2022/03/08 06:29:29;;;;;;;30.50;19.15;;;;;;;2.03;40.49;95755.63;4954060;28;20106;-76
2022/03/08 06:31:55;;;;;;;29.08;17.88;;;;;;;1.90;40.33;95723.66;4937124;29;20497;-76
2022/03/08 06:34:20;;;;;;;25.98;17.70;;;;;;;1.90;40.69;95706.06;4936568;29;20680;-73
2022/03/08 06:36:46;;;;;;;25.95;17.60;;;;;;;2.02;40.69;95737.50;4953902;28;20042;-75
2022/03/08 06:39:12;;;;;;;24.42;17.20;;;;;;;1.93;41.03;95720.53;4936573;29;20035;-74
2022/03/08 06:41:38;;;;;;;30.63;18.23;;;;;;;2.02;40.47;95701.56;4969714;28;20043;-74
2022/03/08 06:44:03;;;;;;;25.73;17.85;;;;;;;1.94;40.27;95693.25;4972830;28;20050;-76
2022/03/08 06:46:30;;;;;;;34.80;18.20;;;;;;;1.75;40.47;95690.06;4972944;28;20034;-75
2022/03/08 06:48:55;;;;;;;27.55;17.60;;;;;;;2.04;40.61;95707.34;4972840;28;20033;-75
2022/03/08 06:51:21;;;;;;;25.85;18.25;;;;;;;2.27;40.02;95734.53;4972832;28;20030;-74
2022/03/08 06:53:46;;;;;;;25.27;17.52;;;;;;;2.06;40.59;95717.63;4972596;28;20373;-75
2022/03/08 06:56:12;;;;;;;26.92;17.38;;;;;;;2.22;40.60;95726.56;4972332;28;20035;-75
2022/03/08 06:58:38;;;;;;;24.45;17.20;;;;;;;2.31;40.55;95733.81;4972183;28;20475;-74
2022/03/08 07:01:04;;;;;;;24.73;17.65;;;;;;;2.31;40.71;95709.41;4971788;28;20062;-71
2022/03/08 07:03:30;;;;;;;22.75;17.52;;;;;;;2.71;40.21;95753.88;4955361;28;20475;-74
2022/03/08 07:05:55;;;;;;;27.75;17.15;;;;;;;2.70;40.46;95746.25;4972514;28;20035;-70
2022/03/08 07:08:21;;;;;;;23.63;16.85;;;;;;;2.98;39.91;95756.66;4955006;28;20035;-71
2022/03/08 07:10:46;;;;;;;25.42;16.38;;;;;;;3.14;40.19;95765.56;4971909;28;20031;-73
2022/03/08 07:13:11;;;;;;;23.45;16.88;;;;;;;3.08;39.71;95727.13;4972355;28;20435;-73
2022/03/08 07:15:38;;;;;;;23.15;16.55;;;;;;;2.95;39.76;95707.22;4972482;28;20035;-73
2022/03/08 07:18:03;;;;;;;27.15;15.98;;;;;;;3.37;39.46;95719.84;4972223;28;20054;-75
2022/03/08 07:20:29;;;;;;;22.70;15.48;;;;;;;3.62;39.26;95730.69;4954582;28;20428;-70
2022/03/08 07:22:54;;;;;;;20.90;14.27;;;;;;;3.53;39.25;95753.22;4972017;28;20035;-71
2022/03/08 07:25:20;;;;;;;20.10;15.27;;;;;;;3.94;39.23;95726.56;4971715;28;20038;-71
2022/03/08 07:27:45;;;;;;;18.85;14.90;;;;;;;4.10;38.84;95723.84;4972049;28;20384;-72
2022/03/08 07:30:11;;;;;;;16.02;14.20;;;;;;;4.57;38.54;95749.56;4972018;28;20066;-70
2022/03/08 07:32:36;;;;;;;17.10;13.88;;;;;;;4.76;37.99;95755.25;4972028;28;20035;-72
2022/03/08 07:35:03;;;;;;;20.92;14.50;;;;;;;4.68;37.50;95709.06;4954741;28;20030;-70
2022/03/08 07:37:33;;;;;;;19.35;13.43;;;;;;;5.24;37.27;95747.41;4954605;28;20027;-70
2022/03/08 07:39:59;;;;;;;17.95;13.85;;;;;;;5.16;36.80;95717.03;4971795;28;20035;-70
2022/03/08 07:42:25;;;;;;;14.73;12.90;;;;;;;5.61;36.25;95731.50;4963141;28;20170;-70
2022/03/08 07:44:51;;;;;;;17.25;12.95;;;;;;;5.54;36.03;95726.47;4952900;28;20507;-70
2022/03/08 07:47:16;;;;;;;25.13;14.60;;;;;;;5.76;35.89;95726.28;4952739;28;20106;-70
2022/03/08 07:49:41;;;;;;;15.50;13.20;;;;;;;6.37;35.35;95744.97;4952790;29;20027;-72
2022/03/08 07:52:07;;;;;;;15.15;13.48;;;;;;;5.92;34.70;95721.88;4952575;29;20110;-71
2022/03/08 07:54:32;;;;;;;18.92;13.45;;;;;;;6.14;35.24;95735.69;4952611;28;20122;-70
2022/03/08 07:56:58;;;;;;;19.35;13.20;;;;;;;6.54;34.30;95723.56;4968550;28;20187;-70
2022/03/08 07:59:23;;;;;;;14.63;13.13;;;;;;;6.14;34.19;95711.91;4954096;28;20033;-71
2022/03/08 08:01:49;;;;;;;14.13;12.82;;;;;;;5.81;34.44;95686.72;4971597;28;20034;-71
2022/03/08 08:04:14;;;;;;;15.20;13.05;;;;;;;5.64;35.01;95728.38;4971957;28;20110;-70
2022/03/08 08:06:39;;;;;;;16.20;13.77;;;;;;;5.26;35.62;95705.75;4971649;28;20030;-71
2022/03/08 08:09:05;;;;;;;17.65;13.48;;;;;;;5.15;36.05;95755.00;4971656;28;20030;-70
2022/03/08 08:11:30;;;;;;;15.35;13.70;;;;;;;4.97;36.90;95761.47;4971112;28;20539;-71
2022/03/08 08:13:55;;;;;;;14.75;13.25;;;;;;;4.97;36.23;95755.41;4957634;28;20035;-70
2022/03/08 08:16:23;;;;;;;14.30;12.27;;;;;;;4.45;36.38;95704.13;4958158;28;20031;-71
2022/03/08 08:18:48;;;;;;;14.77;13.15;;;;;;;4.70;36.86;95732.53;4975318;28;20022;-71
2022/03/08 08:21:14;;;;;;;15.75;13.00;;;;;;;5.01;36.34;95728.28;4975514;28;20528;-70
2022/03/08 08:23:39;;;;;;;14.32;12.93;;;;;;;4.81;36.68;95726.31;4958055;28;20035;-70
2022/03/08 08:26:04;;;;;;;15.02;12.40;;;;;;;4.35;37.62;95735.66;4957660;28;20035;-70
2022/03/08 08:28:30;;;;;;;14.27;12.77;;;;;;;4.26;38.00;95724.00;4975214;28;20515;-72
2022/03/08 08:30:55;;;;;;;15.38;12.60;;;;;;;5.07;37.03;95729.13;4975241;28;20035;-70
2022/03/08 08:33:20;;;;;;;15.18;12.82;;;;;;;4.82;37.43;95748.19;4975552;28;20056;-70
2022/03/08 08:35:46;;;;;;;13.77;12.48;;;;;;;4.54;37.36;95710.53;4975434;28;20030;-70
2022/03/08 08:38:12;;;;;;;15.77;12.02;;;;;;;4.84;37.34;95717.09;4958099;28;20515;-70
2022/03/08 08:40:37;;;;;;;14.43;12.02;;;;;;;5.03;37.16;95734.09;4974570;28;20027;-71
2022/03/08 08:43:05;;;;;;;14.30;12.90;;;;;;;4.86;37.03;95751.88;4974969;28;20023;-71
2022/03/08 08:45:31;;;;;;;13.43;11.52;;;;;;;4.87;36.60;95732.41;4975297;28;20672;-70
2022/03/08 08:47:56;;;;;;;14.32;11.57;;;;;;;4.87;37.42;95725.31;4975123;28;20026;-70
2022/03/08 08:50:22;;;;;;;14.45;12.25;;;;;;;4.97;36.88;95750.16;4974690;28;20035;-70
2022/03/08 08:52:47;;;;;;;16.75;11.90;;;;;;;5.65;36.24;95748.41;4975061;28;20023;-71
2022/03/08 08:55:12;;;;;;;14.52;10.77;;;;;;;5.38;35.45;95725.59;4957174;28;20126;-70
2022/03/08 08:57:38;;;;;;;13.30;11.88;;;;;;;5.20;36.07;95745.28;4974536;28;20137;-71
2022/03/08 09:00:06;;;;;;;14.50;11.55;;;;;;;5.54;35.84;95758.13;4974682;28;20105;-70
2022/03/08 09:02:31;;;;;;;13.27;11.60;;;;;;;5.71;35.29;95757.94;4974664;28;20019;-70
2022/03/08 09:04:57;;;;;;;12.77;11.27;;;;;;;5.76;34.26;95730.78;4974793;28;20431;-70
2022/03/08 09:07:22;;;;;;;13.90;10.40;;;;;;;5.02;35.80;95716.69;4974744;28;20034;-71
2022/03/08 09:09:49;;;;;;;11.23;10.05;;;;;;;5.41;34.63;95703.19;4974455;28;20023;-71
2022/03/08 09:12:14;;;;;;;14.32;9.18;;;;;;;5.36;34.48;95718.97;4974047;28;20041;-71
2022/03/08 09:14:40;;;;;;;13.00;9.20;;;;;;;5.49;34.55;95737.00;4956955;28;20030;-70
2022/03/08 09:17:05;;;;;;;11.20;9.05;;;;;;;5.19;34.56;95733.13;4957078;28;20027;-71
2022/03/08 09:19:31;;;;;;;9.80;8.55;;;;;;;5.00;35.00;95753.06;4974340;28;20031;-71
2022/03/08 09:21:56;;;;;;;11.10;8.52;;;;;;;4.76;34.92;95705.19;4974161;28;20034;-71
2022/03/08 09:24:22;;;;;;;9.68;8.68;;;;;;;4.91;35.15;95699.19;4973528;28;20027;-71
2022/03/08 09:26:47;;;;;;;9.50;8.52;;;;;;;5.21;33.81;95683.56;4974136;28;20110;-71
2022/03/08 09:29:12;;;;;;;12.15;10.00;;;;;;;5.48;34.98;95722.22;4958685;28;20031;-70
2022/03/08 09:31:38;;;;;;;10.75;9.65;;;;;;;6.25;33.67;95692.38;4937727;29;20055;-70
2022/03/08 09:34:03;;;;;;;9.98;8.95;;;;;;;6.50;33.61;95731.25;4955321;29;20026;-70
2022/03/08 09:36:29;;;;;;;12.20;9.23;;;;;;;6.69;33.26;95722.78;4955344;28;20031;-71
2022/03/08 09:38:54;;;;;;;11.20;9.15;;;;;;;6.80;33.15;95720.94;4955466;29;20030;-71
2022/03/08 09:41:21;;;;;;;11.10;9.23;;;;;;;6.25;32.61;95663.31;4962448;28;20023;-70
2022/03/08 09:43:46;;;;;;;11.48;7.70;;;;;;;6.58;33.00;95695.56;4974192;28;20015;-70
2022/03/08 09:46:11;;;;;;;9.73;8.65;;;;;;;6.76;32.01;95700.31;4974375;28;20038;-71
2022/03/08 09:48:37;;;;;;;13.68;8.65;;;;;;;7.02;32.16;95702.94;4974113;28;20089;-70
2022/03/08 09:51:04;;;;;;;8.93;8.02;;;;;;;7.33;30.95;95729.34;4956821;28;20456;-71
2022/03/08 09:53:30;;;;;;;14.23;8.90;;;;;;;7.08;31.71;95722.25;4974132;28;20027;-70
2022/03/08 09:55:57;;;;;;;14.75;8.82;;;;;;;7.41;31.03;95726.13;4956328;28;20101;-71
2022/03/08 09:58:23;;;;;;;9.00;8.10;;;;;;;7.58;31.72;95720.53;4965059;28;20023;-71
2022/03/08 10:00:48;;;;;;;10.75;8.05;;;;;;;7.56;31.88;95732.16;4937264;29;20027;-70
2022/03/08 10:03:14;;;;;;;8.95;8.05;;;;;;;7.44;31.46;95712.38;4954821;28;20098;-70
2022/03/08 10:05:43;;;;;;;8.65;7.75;;;;;;;7.69;31.52;95730.81;4937071;28;20035;-70
2022/03/08 10:08:19;;;;;;;8.65;7.80;;;;;;;7.61;31.46;95720.78;4954474;29;20114;-71
2022/03/08 10:10:51;;;;;;;7.07;6.47;;;;;;;7.11;31.23;95711.09;4937612;28;20400;-71
2022/03/08 10:13:18;;;;;;;9.82;6.70;;;;;;;7.78;30.00;95721.25;4965898;28;20049;-71
2022/03/08 10:15:44;;;;;;;9.13;5.82;;;;;;;7.09;30.05;95719.31;4954047;28;20038;-71
2022/03/08 10:18:09;;;;;;;8.98;6.30;;;;;;;7.44;29.15;95722.94;4954449;28;20028;-71
2022/03/08 10:20:35;;;;;;;9.07;6.72;;;;;;;7.03;30.28;95700.03;4953816;28;20156;-71
2022/03/08 10:23:08;;;;;;;7.75;6.10;;;;;;;7.32;29.71;95717.16;4954113;29;20066;-72
2022/03/08 10:25:33;;;;;;;7.72;6.22;;;;;;;7.34;30.44;95684.06;4954060;28;20034;-72
2022/03/08 10:28:02;;;;;;;7.90;6.72;;;;;;;7.62;29.00;95677.34;4972567;28;20395;-70
2022/03/08 10:30:44;;;;;;;6.63;5.93;;;;;;;7.70;28.34;95682.06;4972633;28;20043;-70
2022/03/08 10:33:11;;;;;;;8.82;5.45;;;;;;;7.21;29.05;95693.34;4973363;28;20027;-70
2022/03/08 10:35:41;;;;;;;6.53;5.43;;;;;;;7.44;28.66;95686.69;4973061;28;20050;-71
2022/03/08 10:38:09;;;;;;;6.68;5.45;;;;;;;7.47;28.74;95711.81;4973518;28;20066;-70
2022/03/08 10:40:35;;;;;;;8.85;6.00;;;;;;;7.16;29.59;95708.44;4972923;28;20019;-70
2022/03/08 10:43:04;;;;;;;8.02;5.35;;;;;;;7.29;28.42;95702.63;4972799;28;20035;-70
2022/03/08 10:45:31;;;;;;;8.40;5.47;;;;;;;7.78;27.96;95708.00;4972897;28;20047;-71
2022/03/08 10:47:57;;;;;;;5.82;4.40;;;;;;;7.22;27.96;95687.03;4972819;28;20472;-70
2022/03/08 10:50:25;;;;;;;5.68;5.10;;;;;;;7.44;28.32;95720.31;4972610;28;20042;-73
2022/03/08 10:52:53;;;;;;;5.63;5.13;;;;;;;7.41;27.98;95687.22;4973043;28;20049;-71
2022/03/08 10:55:21;;;;;;;6.65;4.88;;;;;;;8.18;26.92;95679.69;4972793;28;20030;-71
2022/03/08 10:57:55;;;;;;;8.98;5.07;;;;;;;7.82;26.90;95714.31;4972150;28;20034;-71
2022/03/08 11:00:23;;;;;;;5.53;4.63;;;;;;;7.72;27.59;95682.59;4972631;28;20232;-71
2022/03/08 11:03:16;;;;;;;5.75;4.82;;;;;;;7.80;27.29;95703.22;4972899;28;20026;-71
2022/03/08 11:05:47;;;;;;;6.72;5.78;;;;;;;7.93;27.73;95701.03;4952235;28;20464;-72
2022/03/08 11:08:13;;;;;;;9.57;5.22;;;;;;;7.08;28.52;95709.81;4955254;28;20022;-72
2022/03/08 11:10:40;;;;;;;7.32;4.53;;;;;;;7.75;26.78;95689.22;4972296;28;20027;-72
2022/03/08 11:13:06;;;;;;;4.78;4.38;;;;;;;8.25;26.29;95680.19;4971999;28;20435;-72
2022/03/08 11:15:34;;;;;;;6.25;4.53;;;;;;;8.14;26.24;95662.78;4972241;28;20030;-71
2022/03/08 11:18:01;;;;;;;4.68;4.20;;;;;;;8.64;25.74;95666.13;4972720;28;20093;-71
2022/03/08 11:20:28;;;;;;;5.07;4.22;;;;;;;8.68;25.26;95677.75;4954758;28;20424;-73
2022/03/08 11:22:56;;;;;;;9.80;4.95;;;;;;;8.15;26.89;95701.47;4955224;28;20528;-72
2022/03/08 11:25:24;;;;;;;5.80;4.50;;;;;;;8.25;25.99;95682.84;4972505;28;20037;-71